sensor_id;sensor_type;location;lat;lon;timestamp;P1;durP1;ratioP1;P2;durP2;ratioP2
22863;SDS011;11599;49.882;8.680;2022-10-31T00:08:15;6.60;;;3.40;;
22863;SDS011;11599;49.882;8.680;2022-10-31T00:18:59;10.70;;;3.20;;
22863;SDS011;11599;49.882;8.680;2022-10-31T00:29:41;7.90;;;3.10;;
22863;SDS011;11599;49.882;8.680;2022-10-31T00:40:24;6.83;;;2.37;;
22863;SDS011;11599;49.882;8.680;2022-10-31T00:51:07;9.43;;;2.70;;
22863;SDS011;11599;49.882;8.680;2022-10-31T01:01:50;9.20;;;2.90;;
22863;SDS011;11599;49.882;8.680;2022-10-31T01:12:35;9.90;;;3.00;;
22863;SDS011;11599;49.882;8.680;2022-10-31T01:23:18;12.60;;;2.63;;
22863;SDS011;11599;49.882;8.680;2022-10-31T01:34:01;7.63;;;2.70;;
22863;SDS011;11599;49.882;8.680;2022-10-31T01:55:47;10.83;;;2.93;;
22863;SDS011;11599;49.882;8.680;2022-10-31T02:06:33;13.67;;;3.00;;
22863;SDS011;11599;49.882;8.680;2022-10-31T02:17:18;7.17;;;2.77;;
22863;SDS011;11599;49.882;8.680;2022-10-31T02:28:12;9.57;;;3.23;;
22863;SDS011;11599;49.882;8.680;2022-10-31T02:39:02;11.63;;;3.30;;
22863;SDS011;11599;49.882;8.680;2022-10-31T02:49:56;7.97;;;3.27;;
22863;SDS011;11599;49.882;8.680;2022-10-31T03:00:41;11.00;;;2.43;;
22863;SDS011;11599;49.882;8.680;2022-10-31T03:11:28;10.60;;;2.87;;
22863;SDS011;11599;49.882;8.680;2022-10-31T03:22:15;7.23;;;2.70;;
22863;SDS011;11599;49.882;8.680;2022-10-31T03:32:58;6.00;;;2.77;;
22863;SDS011;11599;49.882;8.680;2022-10-31T03:43:46;8.67;;;3.37;;
22863;SDS011;11599;49.882;8.680;2022-10-31T03:54:30;6.20;;;3.00;;
22863;SDS011;11599;49.882;8.680;2022-10-31T04:05:14;7.53;;;2.90;;
22863;SDS011;11599;49.882;8.680;2022-10-31T04:15:58;11.40;;;3.07;;
22863;SDS011;11599;49.882;8.680;2022-10-31T04:26:41;10.93;;;2.97;;
22863;SDS011;11599;49.882;8.680;2022-10-31T04:37:23;7.57;;;2.90;;
22863;SDS011;11599;49.882;8.680;2022-10-31T04:48:06;5.87;;;3.00;;
22863;SDS011;11599;49.882;8.680;2022-10-31T04:58:49;12.70;;;3.37;;
22863;SDS011;11599;49.882;8.680;2022-10-31T05:09:34;10.07;;;3.20;;
22863;SDS011;11599;49.882;8.680;2022-10-31T05:20:16;8.27;;;2.97;;
22863;SDS011;11599;49.882;8.680;2022-10-31T05:31:19;12.93;;;3.40;;
22863;SDS011;11599;49.882;8.680;2022-10-31T05:42:04;8.57;;;3.20;;
22863;SDS011;11599;49.882;8.680;2022-10-31T05:52:53;12.07;;;3.50;;
22863;SDS011;11599;49.882;8.680;2022-10-31T06:03:44;9.67;;;2.90;;
22863;SDS011;11599;49.882;8.680;2022-10-31T06:14:31;5.93;;;2.80;;
22863;SDS011;11599;49.882;8.680;2022-10-31T06:25:13;5.83;;;3.30;;
22863;SDS011;11599;49.882;8.680;2022-10-31T06:46:58;9.93;;;3.73;;
22863;SDS011;11599;49.882;8.680;2022-10-31T06:58:00;9.63;;;3.40;;
22863;SDS011;11599;49.882;8.680;2022-10-31T07:08:47;9.50;;;3.13;;
22863;SDS011;11599;49.882;8.680;2022-10-31T07:19:29;10.70;;;3.57;;
22863;SDS011;11599;49.882;8.680;2022-10-31T07:30:18;11.13;;;4.17;;
22863;SDS011;11599;49.882;8.680;2022-10-31T07:41:07;12.83;;;4.63;;
22863;SDS011;11599;49.882;8.680;2022-10-31T07:51:56;9.03;;;4.23;;
22863;SDS011;11599;49.882;8.680;2022-10-31T08:02:56;7.57;;;3.53;;
22863;SDS011;11599;49.882;8.680;2022-10-31T08:14:35;11.97;;;4.20;;
22863;SDS011;11599;49.882;8.680;2022-10-31T08:25:17;8.77;;;4.20;;
22863;SDS011;11599;49.882;8.680;2022-10-31T09:21:13;7.67;;;3.13;;
22863;SDS011;11599;49.882;8.680;2022-10-31T10:03:59;7.72;;;3.05;;
22863;SDS011;11599;49.882;8.680;2022-10-31T10:36:16;6.80;;;3.15;;
22863;SDS011;11599;49.882;8.680;2022-10-31T11:49:32;6.20;;;2.70;;
22863;SDS011;11599;49.882;8.680;2022-10-31T12:00:36;5.97;;;2.50;;
22863;SDS011;11599;49.882;8.680;2022-10-31T12:35:37;6.55;;;2.50;;
22863;SDS011;11599;49.882;8.680;2022-10-31T12:46:21;4.72;;;2.80;;
22863;SDS011;11599;49.882;8.680;2022-10-31T12:56:49;8.02;;;2.80;;
22863;SDS011;11599;49.882;8.680;2022-10-31T13:07:15;5.45;;;2.35;;
22863;SDS011;11599;49.882;8.680;2022-10-31T13:29:32;8.02;;;2.50;;
22863;SDS011;11599;49.882;8.680;2022-10-31T13:40:11;8.77;;;2.75;;
22863;SDS011;11599;49.882;8.680;2022-10-31T14:02:12;5.82;;;2.70;;
22863;SDS011;11599;49.882;8.680;2022-10-31T14:12:40;5.30;;;2.40;;
22863;SDS011;11599;49.882;8.680;2022-10-31T14:23:25;5.65;;;2.72;;
22863;SDS011;11599;49.882;8.680;2022-10-31T14:33:52;6.90;;;3.38;;
22863;SDS011;11599;49.882;8.680;2022-10-31T14:54:58;11.60;;;3.10;;
22863;SDS011;11599;49.882;8.680;2022-10-31T15:05:21;9.20;;;2.83;;
22863;SDS011;11599;49.882;8.680;2022-10-31T15:15:44;10.75;;;3.25;;
22863;SDS011;11599;49.882;8.680;2022-10-31T15:26:06;8.32;;;2.95;;
22863;SDS011;11599;49.882;8.680;2022-10-31T15:36:29;12.35;;;3.53;;
22863;SDS011;11599;49.882;8.680;2022-10-31T15:46:54;8.93;;;3.60;;
22863;SDS011;11599;49.882;8.680;2022-10-31T15:57:19;11.90;;;3.30;;
22863;SDS011;11599;49.882;8.680;2022-10-31T16:07:53;6.33;;;3.03;;
22863;SDS011;11599;49.882;8.680;2022-10-31T16:18:16;8.60;;;3.40;;
22863;SDS011;11599;49.882;8.680;2022-10-31T16:28:38;7.87;;;3.53;;
22863;SDS011;11599;49.882;8.680;2022-10-31T16:39:02;9.80;;;3.80;;
22863;SDS011;11599;49.882;8.680;2022-10-31T16:49:39;9.03;;;3.70;;
22863;SDS011;11599;49.882;8.680;2022-10-31T17:00:05;7.67;;;4.07;;
22863;SDS011;11599;49.882;8.680;2022-10-31T17:10:27;11.13;;;4.43;;
22863;SDS011;11599;49.882;8.680;2022-10-31T17:20:50;12.00;;;5.40;;
22863;SDS011;11599;49.882;8.680;2022-10-31T17:31:19;12.00;;;5.17;;
22863;SDS011;11599;49.882;8.680;2022-10-31T17:41:42;8.90;;;4.87;;
22863;SDS011;11599;49.882;8.680;2022-10-31T17:52:04;14.27;;;5.50;;
22863;SDS011;11599;49.882;8.680;2022-10-31T18:02:27;9.60;;;5.07;;
22863;SDS011;11599;49.882;8.680;2022-10-31T18:12:48;9.77;;;4.73;;
22863;SDS011;11599;49.882;8.680;2022-10-31T18:23:11;9.63;;;5.03;;
22863;SDS011;11599;49.882;8.680;2022-10-31T18:33:33;14.63;;;5.67;;
22863;SDS011;11599;49.882;8.680;2022-10-31T18:43:58;14.23;;;6.80;;
22863;SDS011;11599;49.882;8.680;2022-10-31T18:54:20;10.80;;;5.43;;
22863;SDS011;11599;49.882;8.680;2022-10-31T19:04:43;19.80;;;6.40;;
22863;SDS011;11599;49.882;8.680;2022-10-31T19:15:05;13.73;;;6.67;;
22863;SDS011;11599;49.882;8.680;2022-10-31T19:25:28;17.77;;;6.70;;
22863;SDS011;11599;49.882;8.680;2022-10-31T19:35:50;20.73;;;6.93;;
22863;SDS011;11599;49.882;8.680;2022-10-31T19:46:16;14.97;;;6.90;;
22863;SDS011;11599;49.882;8.680;2022-10-31T19:56:38;15.47;;;7.67;;
22863;SDS011;11599;49.882;8.680;2022-10-31T20:07:00;22.03;;;7.50;;
22863;SDS011;11599;49.882;8.680;2022-10-31T20:17:22;15.47;;;6.80;;
22863;SDS011;11599;49.882;8.680;2022-10-31T20:27:45;17.33;;;7.73;;
22863;SDS011;11599;49.882;8.680;2022-10-31T20:38:07;17.90;;;7.70;;
22863;SDS011;11599;49.882;8.680;2022-10-31T20:48:30;13.20;;;6.57;;
22863;SDS011;11599;49.882;8.680;2022-10-31T20:58:52;20.67;;;6.37;;
22863;SDS011;11599;49.882;8.680;2022-10-31T21:09:16;17.93;;;5.50;;
22863;SDS011;11599;49.882;8.680;2022-10-31T21:19:38;23.13;;;5.93;;
22863;SDS011;11599;49.882;8.680;2022-10-31T21:30:01;10.63;;;5.40;;
22863;SDS011;11599;49.882;8.680;2022-10-31T21:40:22;11.23;;;5.60;;
22863;SDS011;11599;49.882;8.680;2022-10-31T21:50:46;12.83;;;5.03;;
22863;SDS011;11599;49.882;8.680;2022-10-31T22:01:08;13.50;;;6.27;;
22863;SDS011;11599;49.882;8.680;2022-10-31T22:11:31;17.37;;;7.13;;
22863;SDS011;11599;49.882;8.680;2022-10-31T22:21:53;16.00;;;7.60;;
22863;SDS011;11599;49.882;8.680;2022-10-31T22:32:16;22.23;;;8.17;;
22863;SDS011;11599;49.882;8.680;2022-10-31T22:42:37;21.80;;;8.60;;
22863;SDS011;11599;49.882;8.680;2022-10-31T22:53:00;24.63;;;7.80;;
22863;SDS011;11599;49.882;8.680;2022-10-31T23:03:22;30.93;;;9.07;;
22863;SDS011;11599;49.882;8.680;2022-10-31T23:13:48;26.10;;;9.57;;
22863;SDS011;11599;49.882;8.680;2022-10-31T23:24:27;21.27;;;7.83;;
22863;SDS011;11599;49.882;8.680;2022-10-31T23:34:51;14.57;;;6.73;;
22863;SDS011;11599;49.882;8.680;2022-10-31T23:45:13;20.10;;;7.50;;
22863;SDS011;11599;49.882;8.680;2022-10-31T23:55:37;15.77;;;7.20;;
